createdAt,value
2017-05-20T00:01:38.240Z,4.42
2017-05-20T00:04:07.064Z,4.42
2017-05-20T00:06:35.900Z,4.32
2017-05-20T00:09:04.741Z,4.80
2017-05-20T00:11:33.576Z,5.28
2017-05-20T00:14:02.407Z,4.96
2017-05-20T00:16:31.237Z,5.10
2017-05-20T00:19:00.080Z,4.44
2017-05-20T00:21:28.921Z,5.06
2017-05-20T00:23:57.732Z,5.02
2017-05-20T00:26:26.572Z,5.24
2017-05-20T00:28:55.387Z,5.50
2017-05-20T00:31:24.216Z,4.68
2017-05-20T00:33:53.057Z,5.00
2017-05-20T00:36:21.888Z,5.26
2017-05-20T00:38:50.735Z,5.54
2017-05-20T00:41:19.564Z,5.20
2017-05-20T00:43:48.396Z,4.38
2017-05-20T00:46:17.231Z,4.76
2017-05-20T00:48:46.056Z,5.16
2017-05-20T00:51:14.906Z,5.40
2017-05-20T00:53:43.737Z,4.48
2017-05-20T00:56:12.560Z,5.40
2017-05-20T00:58:41.398Z,4.88
2017-05-20T01:01:10.232Z,4.52
2017-05-20T01:03:39.074Z,4.40
2017-05-20T01:06:07.892Z,4.70
2017-05-20T01:08:36.729Z,4.10
2017-05-20T01:11:05.570Z,4.34
2017-05-20T01:13:34.402Z,4.80
2017-05-20T01:16:03.244Z,4.80
2017-05-20T01:18:32.080Z,5.02
2017-05-20T01:21:00.900Z,4.98
2017-05-20T01:23:29.739Z,4.58
2017-05-20T01:25:58.563Z,4.44
2017-05-20T01:28:27.409Z,4.30
2017-05-20T01:30:56.231Z,5.00
2017-05-20T01:33:25.067Z,4.08
2017-05-20T01:35:53.906Z,4.40
2017-05-20T01:38:22.734Z,4.50
2017-05-20T01:40:51.579Z,3.84
2017-05-20T01:43:20.408Z,3.72
2017-05-20T01:45:49.248Z,3.70
2017-05-20T01:48:18.097Z,4.14
2017-05-20T01:50:46.925Z,4.30
2017-05-20T01:53:15.025Z,4.34
2017-05-20T01:55:43.085Z,3.90
2017-05-20T01:58:11.912Z,4.32
2017-05-20T02:00:40.762Z,4.22
2017-05-20T02:03:09.587Z,3.94
2017-05-20T02:05:38.432Z,4.18
2017-05-20T02:08:07.269Z,4.16
2017-05-20T02:10:36.096Z,3.30
2017-05-20T02:13:04.924Z,3.82
2017-05-20T02:15:33.745Z,4.38
2017-05-20T02:18:02.588Z,4.00
2017-05-20T02:20:31.407Z,3.56
2017-05-20T02:23:00.247Z,3.30
2017-05-20T02:25:29.095Z,3.80
2017-05-20T02:27:57.920Z,3.74
2017-05-20T02:30:26.756Z,3.42
2017-05-20T02:32:55.580Z,3.16
2017-05-20T02:35:24.429Z,4.00
2017-05-20T02:37:53.285Z,3.38
2017-05-20T02:40:22.112Z,3.28
2017-05-20T02:42:50.947Z,4.28
2017-05-20T02:45:19.788Z,3.30
2017-05-20T02:47:48.624Z,3.62
2017-05-20T02:50:17.463Z,3.44
2017-05-20T02:52:46.304Z,3.32
2017-05-20T02:55:15.152Z,3.66
2017-05-20T02:57:43.985Z,3.44
2017-05-20T03:00:12.820Z,3.32
2017-05-20T03:02:41.636Z,3.00
2017-05-20T03:05:10.487Z,3.36
2017-05-20T03:07:39.308Z,3.48
2017-05-20T03:10:08.160Z,3.46
2017-05-20T03:12:36.231Z,2.98
2017-05-20T03:15:05.053Z,3.60
2017-05-20T03:17:33.899Z,3.28
2017-05-20T03:20:02.731Z,2.82
2017-05-20T03:22:31.580Z,3.42
2017-05-20T03:25:00.428Z,3.57
2017-05-20T03:27:29.262Z,3.67
2017-05-20T03:29:58.100Z,2.87
2017-05-20T03:32:26.164Z,3.38
2017-05-20T03:34:55.013Z,3.82
2017-05-20T03:37:23.836Z,3.12
2017-05-20T03:39:52.672Z,3.60
2017-05-20T03:42:21.512Z,3.46
2017-05-20T03:44:49.575Z,4.34
2017-05-20T03:47:18.431Z,3.30
2017-05-20T03:49:46.498Z,4.12
2017-05-20T03:52:15.333Z,4.88
2017-05-20T03:54:44.178Z,4.65
2017-05-20T03:57:13.000Z,4.28
2017-05-20T03:59:41.848Z,4.03
2017-05-20T04:02:10.671Z,3.46
2017-05-20T04:04:39.507Z,4.76
2017-05-20T04:07:08.335Z,4.38
2017-05-20T04:09:37.166Z,4.44
2017-05-20T04:12:06.001Z,4.32
2017-05-20T04:14:34.822Z,3.10
2017-05-20T04:17:03.667Z,4.26
2017-05-20T04:19:32.487Z,3.14
2017-05-20T04:22:01.319Z,4.10
2017-05-20T04:24:30.205Z,3.44
2017-05-20T04:26:59.604Z,3.32
2017-05-20T04:29:28.456Z,3.36
2017-05-20T04:31:56.509Z,2.92
2017-05-20T04:34:25.341Z,3.38
2017-05-20T04:36:54.176Z,3.18
2017-05-20T04:39:23.008Z,3.10
2017-05-20T04:41:51.848Z,3.74
2017-05-20T04:44:20.682Z,2.98
2017-05-20T04:46:49.509Z,3.20
2017-05-20T04:49:18.348Z,2.84
2017-05-20T04:51:47.171Z,2.94
2017-05-20T04:54:16.027Z,3.46
2017-05-20T04:56:44.091Z,3.20
2017-05-20T04:59:12.925Z,3.26
2017-05-20T05:01:41.761Z,2.58
2017-05-20T05:04:10.594Z,3.10
2017-05-20T05:06:39.434Z,3.48
2017-05-20T05:09:08.257Z,2.40
2017-05-20T05:11:37.080Z,3.18
2017-05-20T05:14:05.960Z,2.60
2017-05-20T05:16:34.787Z,2.88
2017-05-20T05:19:03.644Z,3.32
2017-05-20T05:21:32.467Z,2.70
2017-05-20T05:24:01.307Z,2.50
2017-05-20T05:26:30.138Z,2.10
2017-05-20T05:28:58.963Z,2.70
2017-05-20T05:31:27.820Z,2.84
2017-05-20T05:33:56.649Z,2.20
2017-05-20T05:36:25.489Z,2.78
2017-05-20T05:38:54.336Z,2.24
2017-05-20T05:41:23.165Z,2.20
2017-05-20T05:43:52.019Z,2.62
2017-05-20T05:46:20.092Z,2.46
2017-05-20T05:48:48.924Z,2.68
2017-05-20T05:51:17.766Z,2.36
2017-05-20T05:53:46.597Z,1.96
2017-05-20T05:56:15.444Z,2.32
2017-05-20T05:58:44.272Z,2.04
2017-05-20T06:01:13.120Z,2.22
2017-05-20T06:03:41.932Z,1.68
2017-05-20T06:06:10.797Z,1.84
2017-05-20T06:08:39.622Z,1.70
2017-05-20T06:11:08.463Z,2.16
2017-05-20T06:13:37.309Z,2.12
2017-05-20T06:16:06.140Z,1.62
2017-05-20T06:18:34.986Z,1.70
2017-05-20T06:21:03.824Z,2.40
2017-05-20T06:23:32.669Z,2.10
2017-05-20T06:26:01.507Z,1.50
2017-05-20T06:28:30.337Z,1.76
2017-05-20T06:30:59.187Z,2.40
2017-05-20T06:33:28.017Z,1.84
2017-05-20T06:35:56.859Z,2.00
2017-05-20T06:38:25.689Z,2.12
2017-05-20T06:40:54.545Z,1.62
2017-05-20T06:43:23.383Z,2.34
2017-05-20T06:45:52.221Z,1.78
2017-05-20T06:48:21.052Z,1.94
2017-05-20T06:50:49.884Z,2.20
2017-05-20T06:53:17.960Z,2.22
2017-05-20T06:55:46.787Z,2.16
2017-05-20T06:58:15.633Z,1.90
2017-05-20T07:00:44.469Z,2.08
2017-05-20T07:03:13.291Z,1.74
2017-05-20T07:05:42.139Z,2.86
2017-05-20T07:08:10.971Z,1.90
2017-05-20T07:10:39.884Z,2.72
2017-05-20T07:13:08.659Z,2.48
2017-05-20T07:15:37.502Z,2.68
2017-05-20T07:18:06.335Z,2.18
2017-05-20T07:20:35.160Z,2.08
2017-05-20T07:23:03.996Z,2.56
2017-05-20T07:25:32.825Z,1.92
2017-05-20T07:28:01.661Z,3.38
2017-05-20T07:30:30.483Z,2.26
2017-05-20T07:32:59.336Z,2.22
2017-05-20T07:35:28.188Z,2.94
2017-05-20T07:37:57.021Z,2.26
2017-05-20T07:40:25.848Z,2.20
2017-05-20T07:42:54.676Z,1.90
2017-05-20T07:45:23.524Z,2.68
2017-05-20T07:47:52.350Z,1.90
2017-05-20T07:50:21.195Z,1.96
2017-05-20T07:52:50.028Z,1.78
2017-05-20T07:55:18.856Z,3.28
2017-05-20T07:57:47.697Z,2.48
2017-05-20T08:00:16.532Z,2.32
2017-05-20T08:02:44.599Z,1.98
2017-05-20T08:05:13.433Z,1.68
2017-05-20T08:07:42.254Z,2.12
2017-05-20T08:10:11.085Z,2.26
2017-05-20T08:12:39.907Z,2.60
2017-05-20T08:15:08.761Z,1.78
2017-05-20T08:17:37.591Z,2.08
2017-05-20T08:20:06.421Z,2.14
2017-05-20T08:22:35.258Z,1.82
2017-05-20T08:25:04.202Z,1.92
2017-05-20T08:27:33.043Z,1.72
2017-05-20T08:30:01.879Z,1.50
2017-05-20T08:32:30.707Z,1.48
2017-05-20T08:34:59.550Z,1.66
2017-05-20T08:37:28.375Z,1.54
2017-05-20T08:39:57.232Z,1.98
2017-05-20T08:42:26.072Z,1.94
2017-05-20T08:44:54.981Z,2.00
2017-05-20T08:47:23.817Z,1.80
2017-05-20T08:49:52.657Z,1.66
2017-05-20T08:52:21.504Z,1.60
2017-05-20T08:54:50.339Z,1.36
2017-05-20T08:57:19.205Z,1.38
2017-05-20T08:59:48.023Z,1.32
2017-05-20T09:02:16.851Z,1.46
2017-05-20T09:04:45.798Z,1.56
2017-05-20T09:07:14.644Z,1.10
2017-05-20T09:09:43.480Z,1.28
2017-05-20T09:12:12.336Z,1.38
2017-05-20T09:14:41.252Z,1.30
2017-05-20T09:17:10.105Z,1.42
2017-05-20T09:19:38.947Z,1.44
2017-05-20T09:22:07.772Z,2.02
2017-05-20T09:24:36.614Z,1.30
2017-05-20T09:27:05.452Z,1.40
2017-05-20T09:29:33.788Z,1.40
2017-05-20T09:32:02.622Z,1.40
2017-05-20T09:34:31.464Z,1.30
2017-05-20T09:37:00.304Z,1.10
2017-05-20T09:39:29.135Z,1.28
2017-05-20T09:41:57.981Z,1.18
2017-05-20T09:44:26.823Z,1.20
2017-05-20T09:46:55.662Z,1.30
2017-05-20T09:49:24.500Z,1.22
2017-05-20T09:51:53.328Z,1.30
2017-05-20T09:54:21.404Z,2.18
2017-05-20T09:56:50.445Z,1.20
2017-05-20T09:59:19.270Z,1.22
2017-05-20T10:01:48.117Z,1.22
2017-05-20T10:04:16.940Z,1.26
2017-05-20T10:06:45.801Z,1.50
2017-05-20T10:09:14.625Z,1.84
2017-05-20T10:11:43.452Z,1.60
2017-05-20T10:14:12.296Z,1.48
2017-05-20T10:16:41.124Z,1.96
2017-05-20T10:19:09.977Z,1.60
2017-05-20T10:21:38.805Z,1.22
2017-05-20T10:24:07.720Z,1.24
2017-05-20T10:26:36.551Z,1.30
2017-05-20T10:29:05.399Z,1.10
2017-05-20T10:31:33.497Z,1.28
2017-05-20T10:34:02.720Z,1.20
2017-05-20T10:36:31.556Z,1.20
2017-05-20T10:39:00.395Z,1.20
2017-05-20T10:41:29.220Z,1.46
2017-05-20T10:43:58.075Z,1.42
2017-05-20T10:46:26.903Z,1.32
2017-05-20T10:48:55.732Z,1.16
2017-05-20T10:51:24.568Z,1.30
2017-05-20T10:53:53.401Z,1.48
2017-05-20T10:56:22.263Z,1.54
2017-05-20T10:58:51.097Z,1.30
2017-05-20T11:01:19.919Z,1.50
2017-05-20T11:03:48.759Z,1.50
2017-05-20T11:06:17.591Z,1.30
2017-05-20T11:08:46.446Z,1.22
2017-05-20T11:11:15.268Z,1.34
2017-05-20T11:13:44.098Z,1.28
2017-05-20T11:16:12.935Z,1.30
2017-05-20T11:18:41.757Z,1.48
2017-05-20T11:21:10.596Z,1.20
2017-05-20T11:23:39.429Z,1.30
2017-05-20T11:26:08.252Z,1.20
2017-05-20T11:28:37.100Z,1.34
2017-05-20T11:31:05.927Z,1.20
2017-05-20T11:33:34.771Z,1.22
2017-05-20T11:36:03.599Z,1.40
2017-05-20T11:38:32.436Z,1.12
2017-05-20T11:41:01.276Z,1.40
2017-05-20T11:43:30.102Z,1.20
2017-05-20T11:45:58.955Z,1.30
2017-05-20T11:48:27.780Z,1.30
2017-05-20T11:50:56.607Z,1.26
2017-05-20T11:53:25.442Z,1.22
2017-05-20T11:55:54.273Z,1.50
2017-05-20T11:58:23.132Z,1.20
2017-05-20T12:00:51.960Z,1.00
2017-05-20T12:03:20.788Z,1.10
2017-05-20T12:05:49.629Z,1.22
2017-05-20T12:08:18.457Z,1.00
2017-05-20T12:10:47.312Z,1.10
2017-05-20T12:13:16.141Z,1.10
2017-05-20T12:15:44.981Z,1.00
2017-05-20T12:18:13.823Z,1.62
2017-05-20T12:20:42.652Z,1.26
2017-05-20T12:23:11.502Z,1.06
2017-05-20T12:25:40.336Z,1.10
2017-05-20T12:28:09.216Z,1.20
2017-05-20T12:30:37.999Z,1.08
2017-05-20T12:33:06.828Z,1.00
2017-05-20T12:35:35.677Z,1.20
2017-05-20T12:38:04.511Z,1.32
2017-05-20T12:40:33.333Z,1.08
2017-05-20T12:43:02.164Z,1.12
2017-05-20T12:45:30.998Z,1.18
2017-05-20T12:47:59.844Z,1.00
2017-05-20T12:50:28.672Z,1.10
2017-05-20T12:52:57.500Z,0.94
2017-05-20T12:55:26.341Z,0.96
2017-05-20T12:57:55.171Z,0.98
2017-05-20T13:00:24.028Z,1.10
2017-05-20T13:02:52.864Z,0.90
2017-05-20T13:05:21.703Z,1.06
2017-05-20T13:07:50.533Z,1.20
2017-05-20T13:10:19.365Z,1.38
2017-05-20T13:12:48.420Z,1.40
2017-05-20T13:15:17.297Z,0.82
2017-05-20T13:17:46.191Z,0.96
2017-05-20T13:20:15.028Z,1.10
2017-05-20T13:22:43.857Z,1.38
2017-05-20T13:25:12.737Z,1.00
2017-05-20T13:27:41.574Z,1.00
2017-05-20T13:30:10.400Z,1.20
2017-05-20T13:32:39.237Z,1.00
2017-05-20T13:35:08.070Z,1.00
2017-05-20T13:37:36.916Z,1.28
2017-05-20T13:40:05.741Z,1.12
2017-05-20T13:42:34.567Z,1.08
2017-05-20T13:45:03.401Z,5.92
2017-05-20T13:47:32.224Z,1.20
2017-05-20T13:50:01.072Z,1.06
2017-05-20T13:52:29.916Z,0.96
2017-05-20T13:54:58.752Z,1.00
2017-05-20T13:57:27.604Z,1.32
2017-05-20T13:59:56.440Z,1.12
2017-05-20T14:02:25.290Z,1.10
2017-05-20T14:04:54.224Z,1.10
2017-05-20T14:07:23.068Z,1.10
2017-05-20T14:09:51.908Z,1.34
2017-05-20T14:12:20.735Z,1.00
2017-05-20T14:14:49.583Z,0.90
2017-05-20T14:17:18.412Z,0.74
2017-05-20T14:19:47.264Z,0.90
2017-05-20T14:22:15.317Z,0.90
2017-05-20T14:24:43.384Z,0.86
2017-05-20T14:27:12.224Z,1.00
2017-05-20T14:29:41.053Z,0.90
2017-05-20T14:32:09.899Z,0.90
2017-05-20T14:34:38.734Z,0.90
2017-05-20T14:37:07.564Z,0.80
2017-05-20T14:39:36.425Z,0.90
2017-05-20T14:42:05.270Z,0.84
2017-05-20T14:44:34.147Z,0.92
2017-05-20T14:47:02.977Z,0.90
2017-05-20T14:49:31.818Z,1.10
2017-05-20T14:52:00.681Z,0.80
2017-05-20T14:54:29.508Z,0.86
2017-05-20T14:56:58.987Z,0.74
2017-05-20T14:59:27.839Z,0.90
2017-05-20T15:01:56.695Z,0.94
2017-05-20T15:04:25.542Z,0.90
2017-05-20T15:06:54.378Z,0.80
2017-05-20T15:09:23.222Z,0.86
2017-05-20T15:11:52.051Z,1.20
2017-05-20T15:14:20.896Z,0.80
2017-05-20T15:16:49.742Z,0.80
2017-05-20T15:19:18.584Z,1.00
2017-05-20T15:21:47.411Z,1.30
2017-05-20T15:24:16.271Z,1.78
2017-05-20T15:26:45.105Z,0.90
2017-05-20T15:29:13.946Z,1.00
2017-05-20T15:31:42.803Z,1.08
2017-05-20T15:34:11.623Z,1.00
2017-05-20T15:36:40.478Z,1.08
2017-05-20T15:39:09.314Z,1.02
2017-05-20T15:41:38.140Z,1.12
2017-05-20T15:44:06.994Z,1.12
2017-05-20T15:46:35.843Z,1.24
2017-05-20T15:49:04.706Z,1.32
2017-05-20T15:51:33.540Z,1.28
2017-05-20T15:54:02.380Z,1.10
2017-05-20T15:56:31.227Z,1.20
2017-05-20T15:59:00.069Z,1.56
2017-05-20T16:01:28.919Z,1.30
2017-05-20T16:03:57.775Z,3.20
2017-05-20T16:06:26.642Z,1.02
2017-05-20T16:08:55.470Z,1.06
2017-05-20T16:11:24.336Z,1.12
2017-05-20T16:13:53.176Z,1.26
2017-05-20T16:16:22.007Z,1.20
2017-05-20T16:18:50.864Z,1.00
2017-05-20T16:21:19.700Z,2.04
2017-05-20T16:23:48.538Z,1.50
2017-05-20T16:26:17.369Z,1.34
2017-05-20T16:28:46.212Z,1.10
2017-05-20T16:31:15.068Z,1.30
2017-05-20T16:33:43.906Z,1.32
2017-05-20T16:36:12.763Z,1.20
2017-05-20T16:38:41.607Z,1.00
2017-05-20T16:41:10.442Z,1.10
2017-05-20T16:43:39.280Z,1.12
2017-05-20T16:46:08.134Z,1.28
2017-05-20T16:48:36.988Z,1.92
2017-05-20T16:51:05.827Z,1.36
2017-05-20T16:53:34.678Z,2.86
2017-05-20T16:56:03.516Z,1.40
2017-05-20T16:58:32.364Z,1.72
2017-05-20T17:01:01.194Z,1.22
2017-05-20T17:03:30.087Z,1.26
2017-05-20T17:05:58.939Z,1.30
2017-05-20T17:08:27.779Z,1.00
2017-05-20T17:10:55.849Z,1.14
2017-05-20T17:13:24.680Z,1.26
2017-05-20T17:15:53.520Z,1.38
2017-05-20T17:18:22.345Z,1.32
2017-05-20T17:20:51.192Z,1.30
2017-05-20T17:23:20.046Z,2.02
2017-05-20T17:25:48.872Z,2.10
2017-05-20T17:28:17.709Z,2.44
2017-05-20T17:30:46.551Z,2.40
2017-05-20T17:33:15.385Z,3.30
2017-05-20T17:35:44.241Z,2.10
2017-05-20T17:38:13.111Z,1.88
2017-05-20T17:40:41.956Z,1.76
2017-05-20T17:43:10.797Z,1.42
2017-05-20T17:45:39.647Z,1.50
2017-05-20T17:48:08.476Z,1.94
2017-05-20T17:53:35.084Z,1.92
2017-05-20T17:56:03.919Z,1.70
2017-05-20T17:58:32.750Z,1.64
2017-05-20T18:01:01.571Z,1.60
2017-05-20T18:03:30.433Z,1.92
2017-05-20T18:05:59.254Z,2.30
2017-05-20T18:08:28.093Z,1.80
2017-05-20T18:10:56.938Z,1.80
2017-05-20T18:13:25.776Z,1.80
2017-05-20T18:15:54.600Z,2.00
2017-05-20T18:18:23.428Z,2.06
2017-05-20T18:20:52.261Z,2.04
2017-05-20T18:23:21.088Z,3.50
2017-05-20T18:25:49.924Z,2.92
2017-05-20T18:28:18.758Z,2.20
2017-05-20T18:30:47.607Z,1.96
2017-05-20T18:33:16.441Z,2.74
2017-05-20T18:35:45.266Z,2.98
2017-05-20T18:38:14.111Z,1.64
2017-05-20T18:40:42.940Z,1.40
2017-05-20T18:43:11.776Z,1.40
2017-05-20T18:45:40.612Z,1.50
2017-05-20T18:48:09.451Z,1.54
2017-05-20T18:50:38.312Z,1.86
2017-05-20T18:53:07.143Z,2.08
2017-05-20T18:55:35.979Z,2.10
2017-05-20T18:58:04.818Z,2.06
2017-05-20T19:00:33.660Z,2.52
2017-05-20T19:03:02.488Z,1.68
2017-05-20T19:05:31.347Z,1.70
2017-05-20T19:08:00.164Z,1.90
2017-05-20T19:10:28.243Z,1.50
2017-05-20T19:12:57.091Z,1.52
2017-05-20T19:15:25.913Z,1.50
2017-05-20T19:17:54.749Z,1.64
2017-05-20T19:20:22.811Z,1.70
2017-05-20T19:22:51.669Z,1.62
2017-05-20T19:25:20.487Z,1.40
2017-05-20T19:27:49.312Z,1.88
2017-05-20T19:30:18.144Z,1.50
2017-05-20T19:32:46.974Z,1.50
2017-05-20T19:35:15.802Z,2.04
2017-05-20T19:37:44.632Z,2.16
2017-05-20T19:40:13.460Z,1.50
2017-05-20T19:42:42.307Z,4.14
2017-05-20T19:45:11.184Z,1.72
2017-05-20T19:47:40.000Z,1.56
2017-05-20T19:50:08.828Z,1.60
2017-05-20T19:52:37.687Z,2.18
2017-05-20T19:55:06.508Z,4.08
2017-05-20T19:57:35.353Z,2.78
2017-05-20T20:00:04.178Z,1.82
2017-05-20T20:02:33.035Z,1.66
2017-05-20T20:05:01.875Z,2.60
2017-05-20T20:07:30.710Z,2.46
2017-05-20T20:09:59.540Z,1.56
2017-05-20T20:12:28.371Z,1.64
2017-05-20T20:14:57.202Z,1.56
2017-05-20T20:17:26.037Z,2.18
2017-05-20T20:19:54.868Z,2.10
2017-05-20T20:22:23.733Z,1.96
2017-05-20T20:24:52.571Z,1.94
2017-05-20T20:27:21.410Z,2.20
2017-05-20T20:29:50.269Z,1.98
2017-05-20T20:32:18.337Z,1.96
2017-05-20T20:34:47.167Z,1.94
2017-05-20T20:37:16.022Z,1.96
2017-05-20T20:39:44.867Z,3.02
2017-05-20T20:42:13.698Z,6.06
2017-05-20T20:44:41.779Z,2.56
2017-05-20T20:47:10.619Z,2.20
2017-05-20T20:49:39.459Z,2.50
2017-05-20T20:52:08.290Z,2.70
2017-05-20T20:54:36.364Z,1.94
2017-05-20T20:57:05.200Z,1.96
2017-05-20T20:59:34.032Z,2.54
2017-05-20T21:02:02.860Z,2.24
2017-05-20T21:04:30.948Z,2.22
2017-05-20T21:06:59.778Z,2.30
2017-05-20T21:09:28.612Z,6.30
2017-05-20T21:11:57.466Z,2.72
2017-05-20T21:14:26.292Z,3.34
2017-05-20T21:16:55.122Z,4.18
2017-05-20T21:19:23.998Z,2.14
2017-05-20T21:21:52.817Z,2.40
2017-05-20T21:24:21.652Z,2.48
2017-05-20T21:26:50.489Z,2.88
2017-05-20T21:29:19.345Z,2.22
2017-05-20T21:31:48.194Z,2.26
2017-05-20T21:34:17.047Z,3.38
2017-05-20T21:36:45.893Z,2.36
2017-05-20T21:39:14.723Z,2.86
2017-05-20T21:41:43.580Z,2.42
2017-05-20T21:44:12.402Z,2.26
2017-05-20T21:46:41.259Z,2.00
2017-05-20T21:49:10.096Z,2.58
2017-05-20T21:51:38.959Z,2.38
2017-05-20T21:54:07.790Z,3.00
2017-05-20T21:56:36.627Z,2.80
2017-05-20T21:59:05.473Z,2.12
2017-05-20T22:01:34.309Z,2.78
2017-05-20T22:04:03.143Z,2.68
2017-05-20T22:06:31.976Z,3.90
2017-05-20T22:09:00.817Z,2.88
2017-05-20T22:11:29.648Z,2.70
2017-05-20T22:13:58.514Z,3.02
2017-05-20T22:16:27.336Z,2.88
2017-05-20T22:18:56.170Z,2.64
2017-05-20T22:21:25.016Z,2.16
2017-05-20T22:23:53.872Z,2.40
2017-05-20T22:26:22.707Z,1.90
2017-05-20T22:28:51.538Z,2.88
2017-05-20T22:31:20.379Z,3.18
2017-05-20T22:33:49.227Z,2.82
2017-05-20T22:36:17.314Z,2.40
2017-05-20T22:38:46.164Z,2.42
2017-05-20T22:41:14.996Z,3.20
2017-05-20T22:43:43.845Z,2.56
2017-05-20T22:46:12.675Z,2.60
2017-05-20T22:48:41.539Z,3.16
2017-05-20T22:51:09.622Z,2.94
2017-05-20T22:53:38.453Z,2.82
2017-05-20T22:56:07.318Z,2.56
2017-05-20T22:58:36.151Z,2.28
2017-05-20T23:01:05.007Z,2.50
2017-05-20T23:03:33.854Z,2.92
2017-05-20T23:06:02.731Z,2.62
2017-05-20T23:08:31.560Z,2.80
2017-05-20T23:11:00.401Z,2.30
2017-05-20T23:13:29.444Z,2.96
2017-05-20T23:15:58.299Z,2.76
2017-05-20T23:18:27.132Z,2.72
2017-05-20T23:20:55.979Z,2.88
2017-05-20T23:23:25.163Z,3.16
2017-05-20T23:25:54.411Z,2.84
2017-05-20T23:28:23.516Z,2.74
2017-05-20T23:30:52.589Z,3.80
2017-05-20T23:33:21.884Z,2.50
2017-05-20T23:35:51.063Z,3.22
2017-05-20T23:38:19.899Z,3.36
2017-05-20T23:40:47.967Z,2.62
2017-05-20T23:43:16.804Z,3.50
2017-05-20T23:45:45.645Z,3.18
2017-05-20T23:48:14.480Z,3.56
2017-05-20T23:50:43.320Z,2.60
2017-05-20T23:53:11.391Z,2.66
2017-05-20T23:55:40.241Z,2.64
2017-05-20T23:58:09.068Z,3.08
